Flugplatz Mosbach-Lohrbach

Für EDGM sind keine METAR/TAF Berichte vorhanden.
Es werden die Flugwettermeldungen vom Flugplatz Mannheim-City in 44 km Entfernung angezeigt.

Bericht für EDFM

vom 20.10. um 19:50 UTC

variable Windrichtung mit 1 kt

Sichtweite 10 km oder mehr

gute Sicht, keine Wolken < 5000 ft, keine CB, keine Wettererscheinungen (CAVOK)

Temperatur 15.0°C

Taupunkt 14.0°C

Luftfeuchtigkeit 94%

Luftdruck 1008 hPa

EDFM 201950Z VRB01KT CAVOK 15/14 Q1008
Keine Prognose (TAF) verfügbar.
Impressum